Northwest Sanderling — VNVZ — position and weather

sailwx.info

Track history (hours):
 
Tides and Currents Weather Stations Pressure Air Temp Water Temp Dewpoint Dewpoint Depression Visibility Wind Speed Wind Dir Waves Ship Positions

Northwest Sanderling

Last reported at 2016-Apr-15 20:03 UTC. Time now 2016-Apr-30 15:05 UTC.
Position N 01°28' E 103°50'.
Warning: this ship's position is 14 days out of date.

Length 272 m; beam 47.2 m; draft 11.4 m.

Type: Ship (hazmat cat A). MMSI: 503000050.

Date/timePositionNaut miles runAvg speedWind from/ knotsBaromVisibWave heightAir tempDewpointWater temp
2016-Apr-15 20:03N 01°28' E 103°50'0 0.0
2016-Apr-15 17:33N 01°28' E 103°50'0 0.0
2016-Apr-15 16:18N 01°28' E 103°50'0 0.0
2016-Apr-15 15:27N 01°28' E 103°50'0 0.0
2016-Apr-15 03:11N 01°28' E 103°50'1 1.0
2016-Apr-15 02:31N 01°28' E 103°51'8 7.6
2016-Apr-15 01:29N 01°24' E 103°57'8 8.0
2016-Apr-15 00:32N 01°20' E 104°04'1 1.0
2016-Apr-14 23:28N 01°19' E 104°04'0 0.1
2016-Apr-14 22:31N 01°19' E 104°04'0 0.1
2016-Apr-14 21:25N 01°19' E 104°04'0 0.1
2016-Apr-14 20:31N 01°19' E 104°04'0 0.0
2016-Apr-14 19:31N 01°19' E 104°04'0 0.0
2016-Apr-14 18:31N 01°19' E 104°04'0 0.0
2016-Apr-14 17:25N 01°19' E 104°04'0 0.0
2016-Apr-14 15:31N 01°19' E 104°04'0 0.1
2016-Apr-14 14:25N 01°19' E 104°04'0 0.0
2016-Apr-14 13:31N 01°19' E 104°04'0 0.0
2016-Apr-14 12:13N 01°19' E 104°04'0 0.0
2016-Apr-14 11:31N 01°19' E 104°04'0 0.1
2016-Apr-14 10:31N 01°19' E 104°04'0 0.1
2016-Apr-14 09:19N 01°19' E 104°04'0 0.0
2016-Apr-14 07:31N 01°19' E 104°04'0 0.0
2016-Apr-14 06:33N 01°19' E 104°04'1 0.6
2016-Apr-14 05:33N 01°19' E 104°05'4 3.9
2016-Apr-14 04:32N 01°17' E 104°08'  
2016-Apr-11 00:00N 11°24' E 112°36'435 9.1 190 / 101010.410.8 0.529.024.829.3
2016-Apr-09 00:00N 16°30' E 117°54'30212.6 050 / 101014.010.8 28.024.429.3
2016-Apr-08 00:00N 19°54' E 121°48'28611.9 190 / 101015.010.8 0.528.024.428.0
2016-Apr-07 00:00N 23°00' E 125°42'   200 / 261017.010.8 1.025.023.524.9
Track history (hours):
 
Tides and Currents Weather Stations Pressure Air Temp Water Temp Dewpoint Dewpoint Depression Visibility Wind Speed Wind Dir Waves Ship Positions

Northwest Sanderling

Last reported at 2016-Apr-15 20:03 UTC. Time now 2016-Apr-30 15:05 UTC.
Position N 01°28' E 103°50'.
Warning: this ship's position is 14 days out of date.

Length 272 m; beam 47.2 m; draft 11.4 m.

Type: Ship (hazmat cat A). MMSI: 503000050.

Date/timePositionNaut miles runAvg speedWind from/ knotsBaromVisibWave heightAir tempDewpointWater temp
2016-Apr-15 20:03N 01°28' E 103°50'0 0.0
2016-Apr-15 17:33N 01°28' E 103°50'0 0.0
2016-Apr-15 16:18N 01°28' E 103°50'0 0.0
2016-Apr-15 15:27N 01°28' E 103°50'0 0.0
2016-Apr-15 03:11N 01°28' E 103°50'1 1.0
2016-Apr-15 02:31N 01°28' E 103°51'8 7.6
2016-Apr-15 01:29N 01°24' E 103°57'8 8.0
2016-Apr-15 00:32N 01°20' E 104°04'1 1.0
2016-Apr-14 23:28N 01°19' E 104°04'0 0.1
2016-Apr-14 22:31N 01°19' E 104°04'0 0.1
2016-Apr-14 21:25N 01°19' E 104°04'0 0.1
2016-Apr-14 20:31N 01°19' E 104°04'0 0.0
2016-Apr-14 19:31N 01°19' E 104°04'0 0.0
2016-Apr-14 18:31N 01°19' E 104°04'0 0.0
2016-Apr-14 17:25N 01°19' E 104°04'0 0.0
2016-Apr-14 15:31N 01°19' E 104°04'0 0.1
2016-Apr-14 14:25N 01°19' E 104°04'0 0.0
2016-Apr-14 13:31N 01°19' E 104°04'0 0.0
2016-Apr-14 12:13N 01°19' E 104°04'0 0.0
2016-Apr-14 11:31N 01°19' E 104°04'0 0.1
2016-Apr-14 10:31N 01°19' E 104°04'0 0.1
2016-Apr-14 09:19N 01°19' E 104°04'0 0.0
2016-Apr-14 07:31N 01°19' E 104°04'0 0.0
2016-Apr-14 06:33N 01°19' E 104°04'1 0.6
2016-Apr-14 05:33N 01°19' E 104°05'4 3.9
2016-Apr-14 04:32N 01°17' E 104°08'  
2016-Apr-11 00:00N 11°24' E 112°36'435 9.1 190 / 101010.410.8 0.529.024.829.3
2016-Apr-09 00:00N 16°30' E 117°54'30212.6 050 / 101014.010.8 28.024.429.3
2016-Apr-08 00:00N 19°54' E 121°48'28611.9 190 / 101015.010.8 0.528.024.428.0
2016-Apr-07 00:00N 23°00' E 125°42'   200 / 261017.010.8 1.025.023.524.9

Dump ship's entire track history